createdAt,value
2022-10-31T00:00:55.439Z,2.53
2022-10-31T00:02:57.411Z,2.70
2022-10-31T00:04:59.265Z,2.80
2022-10-31T00:07:00.877Z,2.53
2022-10-31T00:09:04.668Z,2.70
2022-10-31T00:11:10.152Z,2.95
2022-10-31T00:13:13.168Z,2.67
2022-10-31T00:15:14.891Z,2.67
2022-10-31T00:17:16.484Z,2.65
2022-10-31T00:19:18.227Z,3.08
2022-10-31T00:21:20.741Z,2.50
2022-10-31T00:23:22.336Z,3.03
2022-10-31T00:25:23.959Z,3.10
2022-10-31T00:27:25.529Z,2.63
2022-10-31T00:29:27.174Z,2.70
2022-10-31T00:31:29.286Z,2.53
2022-10-31T00:33:31.053Z,2.80
2022-10-31T00:35:33.198Z,2.78
2022-10-31T00:37:34.853Z,2.65
2022-10-31T00:39:36.470Z,2.50
2022-10-31T00:41:38.105Z,2.78
2022-10-31T00:43:39.827Z,2.65
2022-10-31T00:45:43.454Z,2.50
2022-10-31T00:47:45.082Z,2.22
2022-10-31T00:49:46.686Z,2.67
2022-10-31T00:51:48.293Z,2.80
2022-10-31T00:53:49.884Z,2.78
2022-10-31T00:55:51.532Z,2.80
2022-10-31T00:57:53.172Z,2.53
2022-10-31T00:59:54.791Z,2.67
2022-10-31T01:01:56.524Z,2.85
2022-10-31T01:03:58.222Z,2.90
2022-10-31T01:06:06.174Z,2.60
2022-10-31T01:08:07.785Z,2.80
2022-10-31T01:10:11.096Z,2.40
2022-10-31T01:12:12.793Z,2.50
2022-10-31T01:14:14.447Z,2.33
2022-10-31T01:16:18.036Z,2.85
2022-10-31T01:18:19.695Z,2.78
2022-10-31T01:20:21.428Z,2.65
2022-10-31T01:22:23.029Z,2.70
2022-10-31T01:24:24.755Z,2.80
2022-10-31T01:26:28.709Z,2.60
2022-10-31T01:28:30.353Z,2.50
2022-10-31T01:30:32.969Z,2.50
2022-10-31T01:32:34.738Z,2.47
2022-10-31T01:34:36.329Z,2.65
2022-10-31T01:36:38.970Z,3.08
2022-10-31T01:38:40.961Z,2.90
2022-10-31T01:40:42.547Z,2.92
2022-10-31T01:42:44.155Z,2.63
2022-10-31T01:44:52.623Z,2.58
2022-10-31T01:47:22.665Z,2.70
2022-10-31T01:49:57.909Z,2.40
2022-10-31T01:52:04.923Z,2.55
2022-10-31T01:54:10.461Z,3.45
2022-10-31T01:56:13.703Z,2.72
2022-10-31T01:58:23.655Z,2.67
2022-10-31T02:00:25.351Z,3.20
2022-10-31T02:02:30.650Z,2.70
2022-10-31T02:04:32.494Z,2.60
2022-10-31T02:06:48.340Z,2.70
2022-10-31T02:08:51.320Z,2.75
2022-10-31T02:10:53.914Z,2.55
2022-10-31T02:12:59.018Z,2.72
2022-10-31T02:15:01.372Z,2.47
2022-10-31T02:17:03.040Z,2.83
2022-10-31T02:19:08.714Z,2.70
2022-10-31T02:21:50.647Z,2.72
2022-10-31T02:24:10.905Z,2.83
2022-10-31T02:26:39.176Z,2.53
2022-10-31T02:29:42.355Z,2.17
2022-10-31T02:31:53.344Z,2.63
2022-10-31T02:36:08.727Z,2.38
2022-10-31T02:38:39.529Z,2.40
2022-10-31T02:41:02.734Z,2.83
2022-10-31T02:43:18.135Z,2.70
2022-10-31T02:45:56.624Z,2.25
2022-10-31T02:48:05.986Z,2.45
2022-10-31T02:50:18.812Z,2.67
2022-10-31T02:52:29.626Z,2.42
2022-10-31T02:54:32.591Z,2.00
2022-10-31T02:56:34.283Z,2.47
2022-10-31T02:58:55.325Z,2.60
2022-10-31T03:01:19.272Z,2.67
2022-10-31T03:03:26.703Z,2.40
2022-10-31T03:05:33.617Z,2.50
2022-10-31T03:07:54.187Z,2.50
2022-10-31T03:10:04.294Z,2.13
2022-10-31T03:12:27.451Z,2.37
2022-10-31T03:14:45.586Z,2.90
2022-10-31T03:16:52.731Z,2.47
2022-10-31T03:19:06.450Z,2.38
2022-10-31T03:21:14.652Z,2.38
2022-10-31T03:23:19.389Z,2.60
2022-10-31T03:25:20.985Z,2.63
2022-10-31T03:27:27.244Z,2.72
2022-10-31T03:29:33.608Z,2.28
2022-10-31T03:31:40.283Z,2.10
2022-10-31T03:33:44.259Z,2.20
2022-10-31T03:35:49.252Z,2.00
2022-10-31T03:37:53.628Z,2.45
2022-10-31T03:39:57.097Z,2.10
2022-10-31T03:42:09.865Z,2.80
2022-10-31T03:44:15.790Z,2.42
2022-10-31T03:46:18.531Z,2.13
2022-10-31T03:48:22.701Z,2.10
2022-10-31T03:50:29.533Z,2.22
2022-10-31T03:53:04.739Z,2.40
2022-10-31T03:55:13.711Z,2.20
2022-10-31T03:57:26.248Z,2.25
2022-10-31T03:59:34.239Z,2.58
2022-10-31T04:01:48.098Z,2.38
2022-10-31T04:03:50.498Z,2.58
2022-10-31T04:05:55.243Z,2.70
2022-10-31T04:07:59.359Z,2.13
2022-10-31T04:10:02.911Z,2.20
2022-10-31T04:12:09.538Z,2.65
2022-10-31T04:14:12.736Z,2.75
2022-10-31T04:16:17.158Z,2.10
2022-10-31T04:18:19.281Z,2.42
2022-10-31T04:20:37.889Z,2.20
2022-10-31T04:22:39.557Z,2.38
2022-10-31T04:24:41.897Z,2.63
2022-10-31T04:26:43.482Z,2.40
2022-10-31T04:28:45.090Z,2.58
2022-10-31T04:30:46.682Z,2.65
2022-10-31T04:32:48.534Z,2.55
2022-10-31T04:34:50.128Z,2.50
2022-10-31T04:36:51.732Z,2.70
2022-10-31T04:38:53.401Z,2.70
2022-10-31T04:40:55.086Z,2.30
2022-10-31T04:42:56.909Z,2.30
2022-10-31T04:44:58.636Z,2.88
2022-10-31T04:47:00.255Z,2.67
2022-10-31T04:49:01.950Z,2.63
2022-10-31T04:51:03.999Z,2.53
2022-10-31T04:53:05.624Z,2.80
2022-10-31T04:55:07.561Z,2.78
2022-10-31T04:57:09.148Z,2.65
2022-10-31T04:59:10.769Z,2.05
2022-10-31T05:01:12.821Z,2.10
2022-10-31T05:03:14.523Z,2.55
2022-10-31T05:05:17.941Z,2.50
2022-10-31T05:07:19.529Z,2.38
2022-10-31T05:09:21.165Z,2.38
2022-10-31T05:11:22.738Z,2.33
2022-10-31T05:13:24.340Z,3.10
2022-10-31T05:15:27.788Z,4.10
2022-10-31T05:17:29.374Z,4.35
2022-10-31T05:19:30.980Z,6.10
2022-10-31T05:21:32.591Z,3.88
2022-10-31T05:23:34.194Z,3.42
2022-10-31T05:25:35.842Z,5.03
2022-10-31T05:27:43.758Z,4.07
2022-10-31T05:29:45.360Z,3.95
2022-10-31T05:31:46.945Z,4.13
2022-10-31T05:33:48.537Z,3.85
2022-10-31T05:35:50.161Z,3.60
2022-10-31T05:37:51.823Z,3.15
2022-10-31T05:39:53.410Z,3.83
2022-10-31T05:41:55.023Z,4.13
2022-10-31T05:43:56.622Z,3.25
2022-10-31T05:45:58.236Z,2.88
2022-10-31T05:48:01.919Z,3.08
2022-10-31T05:50:05.084Z,3.75
2022-10-31T05:52:06.671Z,3.95
2022-10-31T05:54:11.968Z,3.10
2022-10-31T05:56:16.527Z,3.15
2022-10-31T05:58:18.402Z,3.10
2022-10-31T06:00:20.511Z,3.08
2022-10-31T06:02:22.501Z,3.85
2022-10-31T06:04:24.412Z,3.42
2022-10-31T06:06:26.028Z,3.00
2022-10-31T06:08:28.256Z,3.20
2022-10-31T06:10:30.034Z,3.30
2022-10-31T06:12:32.152Z,3.10
2022-10-31T06:14:33.742Z,3.30
2022-10-31T06:16:35.438Z,3.28
2022-10-31T06:18:37.084Z,3.70
2022-10-31T06:20:38.707Z,3.35
2022-10-31T06:22:44.226Z,3.10
2022-10-31T06:24:45.859Z,3.10
2022-10-31T06:26:47.458Z,3.42
2022-10-31T06:28:49.097Z,3.10
2022-10-31T06:30:50.681Z,3.17
2022-10-31T06:32:52.421Z,3.03
2022-10-31T06:34:54.031Z,2.97
2022-10-31T06:36:55.637Z,2.95
2022-10-31T06:38:57.239Z,3.13
2022-10-31T06:40:58.881Z,3.50
2022-10-31T06:43:01.653Z,3.60
2022-10-31T06:45:03.601Z,3.58
2022-10-31T06:47:06.674Z,3.50
2022-10-31T06:49:08.475Z,3.42
2022-10-31T06:51:10.162Z,3.13
2022-10-31T06:53:12.080Z,2.45
2022-10-31T06:55:14.040Z,2.83
2022-10-31T06:57:15.638Z,2.92
2022-10-31T06:59:17.329Z,2.80
2022-10-31T07:01:18.998Z,3.33
2022-10-31T07:03:21.237Z,3.90
2022-10-31T07:05:23.116Z,3.90
2022-10-31T07:07:24.733Z,3.22
2022-10-31T07:09:26.318Z,3.17
2022-10-31T07:11:28.009Z,3.53
2022-10-31T07:13:29.625Z,3.72
2022-10-31T07:15:35.181Z,3.28
2022-10-31T07:17:36.847Z,3.22
2022-10-31T07:19:38.471Z,2.50
2022-10-31T07:21:40.045Z,2.50
2022-10-31T07:23:41.635Z,2.85
2022-10-31T07:25:43.339Z,2.83
2022-10-31T07:27:45.531Z,3.72
2022-10-31T07:29:47.137Z,3.10
2022-10-31T07:31:48.733Z,3.03
2022-10-31T07:33:51.241Z,3.33
2022-10-31T07:35:53.310Z,2.95
2022-10-31T07:37:55.650Z,2.75
2022-10-31T07:39:57.396Z,2.95
2022-10-31T07:42:01.875Z,2.90
2022-10-31T07:44:03.579Z,2.50
2022-10-31T07:46:05.279Z,3.20
2022-10-31T07:48:07.165Z,2.95
2022-10-31T07:50:11.171Z,3.13
2022-10-31T07:52:12.764Z,2.70
2022-10-31T07:54:14.356Z,2.80
2022-10-31T07:56:15.969Z,2.70
2022-10-31T07:58:18.321Z,3.60
2022-10-31T08:00:20.005Z,2.47
2022-10-31T08:02:22.020Z,3.45
2022-10-31T08:04:23.626Z,3.00
2022-10-31T08:06:25.262Z,3.53
2022-10-31T08:08:30.318Z,3.20
2022-10-31T08:10:34.019Z,3.08
2022-10-31T08:12:35.667Z,3.20
2022-10-31T08:14:37.262Z,3.53
2022-10-31T08:16:38.880Z,3.28
2022-10-31T08:18:40.454Z,2.75
2022-10-31T08:20:43.534Z,3.05
2022-10-31T08:22:57.622Z,3.42
2022-10-31T08:24:59.229Z,2.78
2022-10-31T08:27:00.811Z,2.55
2022-10-31T08:29:02.560Z,2.80
2022-10-31T08:31:04.296Z,3.15
2022-10-31T08:33:09.940Z,2.88
2022-10-31T08:35:11.546Z,3.15
2022-10-31T08:37:13.246Z,3.00
2022-10-31T08:39:14.838Z,3.47
2022-10-31T08:41:16.477Z,3.30
2022-10-31T08:43:19.202Z,3.42
2022-10-31T08:45:20.809Z,3.35
2022-10-31T08:47:22.636Z,3.35
2022-10-31T08:49:24.291Z,4.00
2022-10-31T08:51:25.906Z,4.07
2022-10-31T08:53:27.934Z,4.75
2022-10-31T08:55:29.568Z,4.20
2022-10-31T08:57:31.220Z,4.00
2022-10-31T08:59:32.849Z,4.75
2022-10-31T09:01:34.581Z,4.05
2022-10-31T09:03:36.392Z,4.53
2022-10-31T09:05:38.128Z,4.30
2022-10-31T09:07:39.814Z,3.92
2022-10-31T09:09:41.418Z,3.58
2022-10-31T09:11:43.017Z,3.17
2022-10-31T09:13:44.640Z,3.42
2022-10-31T09:15:48.880Z,3.70
2022-10-31T09:17:50.640Z,3.50
2022-10-31T09:19:52.262Z,3.15
2022-10-31T09:21:55.189Z,2.97
2022-10-31T09:23:56.835Z,3.45
2022-10-31T09:26:02.598Z,3.50
2022-10-31T09:28:05.901Z,3.33
2022-10-31T09:30:08.036Z,4.13
2022-10-31T09:32:09.671Z,3.15
2022-10-31T09:34:11.307Z,2.55
2022-10-31T09:36:12.940Z,3.20
2022-10-31T09:38:21.883Z,3.78
2022-10-31T09:40:32.311Z,3.47
2022-10-31T09:42:56.290Z,3.15
2022-10-31T09:45:20.519Z,3.30
2022-10-31T09:47:24.943Z,2.90
2022-10-31T09:49:48.268Z,3.25
2022-10-31T09:52:01.399Z,3.13
2022-10-31T09:54:27.029Z,2.88
2022-10-31T09:56:29.630Z,2.72
2022-10-31T09:58:42.431Z,2.90
2022-10-31T10:00:45.595Z,3.30
2022-10-31T10:03:02.667Z,2.85
2022-10-31T10:05:13.564Z,3.20
2022-10-31T10:07:27.722Z,3.00
2022-10-31T10:09:29.961Z,2.80
2022-10-31T10:11:40.464Z,2.88
2022-10-31T10:14:21.717Z,2.70
2022-10-31T10:16:45.034Z,2.78
2022-10-31T10:19:00.355Z,2.63
2022-10-31T10:21:34.257Z,3.10
2022-10-31T10:23:48.898Z,3.17
2022-10-31T10:25:59.966Z,2.75
2022-10-31T10:30:28.107Z,2.75
2022-10-31T10:32:37.085Z,2.35
2022-10-31T10:34:46.462Z,2.72
2022-10-31T10:36:58.934Z,2.65
2022-10-31T10:39:05.575Z,2.38
2022-10-31T10:41:16.973Z,2.53
2022-10-31T10:43:34.344Z,3.05
2022-10-31T10:45:56.658Z,2.92
2022-10-31T10:48:17.159Z,2.95
2022-10-31T10:50:20.847Z,2.95
2022-10-31T10:52:50.230Z,2.85
2022-10-31T10:55:00.954Z,3.03
2022-10-31T10:57:24.353Z,3.45
2022-10-31T10:59:26.702Z,83.30
2022-10-31T11:01:28.398Z,191.70
2022-10-31T11:03:30.355Z,264.80
2022-10-31T11:05:50.695Z,217.45
2022-10-31T11:07:52.674Z,143.00
2022-10-31T11:10:05.851Z,112.60
2022-10-31T11:12:17.509Z,97.18
2022-10-31T11:14:19.363Z,87.18
2022-10-31T11:16:26.911Z,89.85
2022-10-31T11:18:35.634Z,74.40
2022-10-31T11:20:37.630Z,71.70
2022-10-31T11:22:39.621Z,63.72
2022-10-31T11:24:42.348Z,54.90
2022-10-31T11:26:46.435Z,51.05
2022-10-31T11:28:58.719Z,48.60
2022-10-31T11:31:21.825Z,48.60
2022-10-31T11:33:29.121Z,41.60
2022-10-31T11:35:30.999Z,39.75
2022-10-31T11:37:43.882Z,41.42
2022-10-31T11:39:54.173Z,36.00
2022-10-31T11:42:06.244Z,36.50
2022-10-31T11:44:23.584Z,35.33
2022-10-31T11:46:43.826Z,33.20
2022-10-31T11:48:51.314Z,32.13
2022-10-31T11:50:58.546Z,31.20
2022-10-31T11:53:01.111Z,30.30
2022-10-31T11:55:27.574Z,27.67
2022-10-31T11:57:40.469Z,27.33
2022-10-31T11:59:56.114Z,26.65
2022-10-31T12:02:01.682Z,25.02
2022-10-31T12:04:13.521Z,25.90
2022-10-31T12:06:43.358Z,23.55
2022-10-31T12:08:45.797Z,18.95
2022-10-31T12:11:07.917Z,20.33
2022-10-31T12:13:38.156Z,20.50
2022-10-31T12:15:47.402Z,20.23
2022-10-31T12:18:16.017Z,17.52
2022-10-31T12:20:41.162Z,18.30
2022-10-31T12:22:48.871Z,18.45
2022-10-31T12:24:53.494Z,17.52
2022-10-31T12:27:01.339Z,17.75
2022-10-31T12:29:18.787Z,18.30
2022-10-31T12:31:39.407Z,17.20
2022-10-31T12:34:08.006Z,16.08
2022-10-31T12:36:37.317Z,15.15
2022-10-31T12:38:47.828Z,14.63
2022-10-31T12:41:10.849Z,14.30
2022-10-31T12:43:33.982Z,15.15
2022-10-31T12:45:48.110Z,14.32
2022-10-31T12:48:28.315Z,13.82
2022-10-31T12:50:36.338Z,12.95
2022-10-31T12:52:50.920Z,12.48
2022-10-31T12:54:59.886Z,13.00
2022-10-31T12:57:16.342Z,13.52
2022-10-31T12:59:39.476Z,12.38
2022-10-31T13:02:07.939Z,11.18
2022-10-31T13:04:28.758Z,11.15
2022-10-31T13:06:54.928Z,10.82
2022-10-31T13:09:01.920Z,11.57
2022-10-31T13:11:29.414Z,10.60
2022-10-31T13:13:42.663Z,9.75
2022-10-31T13:15:59.612Z,9.57
2022-10-31T13:18:11.590Z,9.73
2022-10-31T13:20:27.989Z,8.85
2022-10-31T13:22:33.415Z,8.15
2022-10-31T13:24:44.981Z,9.05
2022-10-31T13:27:00.212Z,8.73
2022-10-31T13:29:32.546Z,8.35
2022-10-31T13:31:34.766Z,7.35
2022-10-31T13:33:40.575Z,6.95
2022-10-31T13:36:11.561Z,7.60
2022-10-31T13:38:36.777Z,7.70
2022-10-31T13:41:01.326Z,8.02
2022-10-31T13:43:45.048Z,7.47
2022-10-31T13:45:55.170Z,7.72
2022-10-31T13:48:18.050Z,6.80
2022-10-31T13:50:26.166Z,7.05
2022-10-31T13:52:28.036Z,6.90
2022-10-31T13:54:34.754Z,7.47
2022-10-31T13:56:36.555Z,6.32
2022-10-31T13:58:38.191Z,7.20
2022-10-31T14:00:39.932Z,6.47
2022-10-31T14:02:50.052Z,6.20
2022-10-31T14:04:59.027Z,6.90
2022-10-31T14:07:16.142Z,6.78
2022-10-31T14:09:31.520Z,6.10
2022-10-31T14:11:37.089Z,5.93
2022-10-31T14:13:46.994Z,6.20
2022-10-31T14:15:59.283Z,5.72
2022-10-31T14:18:06.677Z,5.13
2022-10-31T14:20:11.345Z,5.20
2022-10-31T14:22:22.765Z,4.55
2022-10-31T14:24:24.301Z,4.30
2022-10-31T14:26:32.041Z,4.85
2022-10-31T14:28:36.179Z,4.50
2022-10-31T14:30:37.952Z,5.10
2022-10-31T14:32:39.598Z,4.78
2022-10-31T14:34:44.469Z,4.22
2022-10-31T14:36:58.517Z,3.83
2022-10-31T14:39:28.173Z,4.60
2022-10-31T14:41:37.087Z,5.30
2022-10-31T14:44:14.782Z,5.18
2022-10-31T14:46:31.326Z,5.45
2022-10-31T14:48:38.881Z,5.25
2022-10-31T14:50:51.091Z,5.57
2022-10-31T14:53:01.629Z,5.63
2022-10-31T14:55:08.830Z,5.15
2022-10-31T14:57:25.935Z,5.22
2022-10-31T14:59:32.156Z,5.15
2022-10-31T15:01:39.699Z,5.28
2022-10-31T15:04:10.116Z,4.93
2022-10-31T15:06:13.754Z,4.43
2022-10-31T15:08:41.339Z,5.20
2022-10-31T15:10:46.685Z,4.88
2022-10-31T15:12:48.446Z,4.25
2022-10-31T15:14:50.104Z,4.47
2022-10-31T15:16:52.455Z,4.63
2022-10-31T15:18:58.278Z,4.00
2022-10-31T15:21:00.776Z,3.97
2022-10-31T15:23:02.526Z,4.07
2022-10-31T15:25:04.551Z,3.38
2022-10-31T15:27:11.546Z,3.70
2022-10-31T15:29:19.459Z,4.00
2022-10-31T15:31:21.048Z,4.45
2022-10-31T15:33:37.569Z,3.78
2022-10-31T15:35:40.389Z,4.35
2022-10-31T15:37:42.728Z,4.07
2022-10-31T15:39:45.681Z,3.10
2022-10-31T15:41:58.994Z,4.05
2022-10-31T15:44:25.580Z,3.28
2022-10-31T15:46:28.165Z,3.72
2022-10-31T15:48:32.836Z,3.53
2022-10-31T15:50:41.364Z,3.72
2022-10-31T15:52:48.729Z,3.38
2022-10-31T15:54:56.281Z,3.47
2022-10-31T15:56:58.218Z,3.58
2022-10-31T15:59:01.896Z,3.70
2022-10-31T16:01:20.970Z,3.72
2022-10-31T16:03:33.961Z,4.03
2022-10-31T16:05:50.823Z,3.78
2022-10-31T16:07:53.399Z,3.55
2022-10-31T16:10:00.536Z,3.42
2022-10-31T16:12:02.221Z,3.92
2022-10-31T16:14:23.133Z,3.50
2022-10-31T16:16:35.133Z,3.67
2022-10-31T16:18:39.534Z,3.40
2022-10-31T16:20:41.174Z,3.17
2022-10-31T16:22:48.847Z,3.30
2022-10-31T16:24:56.481Z,3.83
2022-10-31T16:27:06.876Z,3.10
2022-10-31T16:29:40.089Z,3.47
2022-10-31T16:31:41.741Z,3.50
2022-10-31T16:33:44.247Z,4.30
2022-10-31T16:35:45.843Z,3.42
2022-10-31T16:37:47.509Z,3.92
2022-10-31T16:39:49.118Z,4.53
2022-10-31T16:41:53.211Z,5.47
2022-10-31T16:43:55.286Z,5.35
2022-10-31T16:45:56.947Z,4.57
2022-10-31T16:48:12.933Z,4.82
2022-10-31T16:50:20.672Z,5.97
2022-10-31T16:52:22.282Z,5.82
2022-10-31T16:54:23.919Z,6.10
2022-10-31T16:56:30.374Z,6.18
2022-10-31T16:58:34.553Z,6.50
2022-10-31T17:00:36.268Z,6.15
2022-10-31T17:02:38.833Z,6.53
2022-10-31T17:04:40.536Z,6.63
2022-10-31T17:06:42.978Z,6.25
2022-10-31T17:08:44.576Z,6.25
2022-10-31T17:10:47.970Z,5.93
2022-10-31T17:12:51.037Z,7.57
2022-10-31T17:14:53.040Z,7.18
2022-10-31T17:16:56.905Z,9.57
2022-10-31T17:18:58.587Z,13.82
2022-10-31T17:21:03.074Z,13.43
2022-10-31T17:23:05.032Z,11.25
2022-10-31T17:25:09.632Z,12.65
2022-10-31T17:27:11.257Z,12.15
2022-10-31T17:29:12.925Z,10.27
2022-10-31T17:31:26.478Z,10.98
2022-10-31T17:33:28.235Z,11.32
2022-10-31T17:35:29.930Z,11.15
2022-10-31T17:37:31.597Z,10.50
2022-10-31T17:39:33.205Z,10.30
2022-10-31T17:41:34.981Z,9.98
2022-10-31T17:43:36.731Z,9.50
2022-10-31T17:45:40.520Z,8.85
2022-10-31T17:47:42.151Z,8.60
2022-10-31T17:49:43.813Z,9.55
2022-10-31T17:51:45.445Z,8.95
2022-10-31T17:53:47.105Z,7.97
2022-10-31T17:55:48.753Z,8.50
2022-10-31T17:57:50.451Z,8.02
2022-10-31T17:59:52.036Z,8.77
2022-10-31T18:01:53.779Z,9.32
2022-10-31T18:03:55.611Z,8.45
2022-10-31T18:05:59.094Z,9.40
2022-10-31T18:08:03.968Z,8.50
2022-10-31T18:10:06.780Z,8.23
2022-10-31T18:12:08.373Z,8.00
2022-10-31T18:14:10.706Z,7.72
2022-10-31T18:16:16.072Z,8.73
2022-10-31T18:18:17.753Z,7.82
2022-10-31T18:20:19.372Z,7.85
2022-10-31T18:22:20.981Z,7.65
2022-10-31T18:24:22.586Z,8.07
2022-10-31T18:26:25.314Z,7.30
2022-10-31T18:28:27.059Z,7.68
2022-10-31T18:30:28.684Z,7.43
2022-10-31T18:32:30.418Z,7.75
2022-10-31T18:34:32.014Z,7.55
2022-10-31T18:36:34.029Z,7.30
2022-10-31T18:38:40.897Z,7.40
2022-10-31T18:40:42.556Z,7.15
2022-10-31T18:42:44.381Z,7.25
2022-10-31T18:44:46.061Z,7.60
2022-10-31T18:46:47.959Z,6.90
2022-10-31T18:48:49.632Z,6.95
2022-10-31T18:50:51.284Z,6.45
2022-10-31T18:52:52.995Z,6.35
2022-10-31T18:54:54.621Z,7.15
2022-10-31T18:56:56.250Z,6.68
2022-10-31T18:59:02.356Z,6.80
2022-10-31T19:01:08.476Z,6.85
2022-10-31T19:03:10.199Z,6.10
2022-10-31T19:05:11.942Z,6.80
2022-10-31T19:07:13.560Z,7.13
2022-10-31T19:09:15.281Z,6.45
2022-10-31T19:11:16.916Z,6.88
2022-10-31T19:13:18.618Z,6.63
2022-10-31T19:15:20.284Z,5.63
2022-10-31T19:17:24.518Z,6.07
2022-10-31T19:19:26.182Z,5.97
2022-10-31T19:21:28.313Z,6.00
2022-10-31T19:23:29.942Z,6.82
2022-10-31T19:25:31.650Z,6.43
2022-10-31T19:27:33.318Z,6.18
2022-10-31T19:29:34.936Z,5.97
2022-10-31T19:31:36.829Z,6.25
2022-10-31T19:33:38.496Z,6.55
2022-10-31T19:35:40.093Z,6.45
2022-10-31T19:37:42.369Z,5.55
2022-10-31T19:39:44.521Z,5.47
2022-10-31T19:41:46.218Z,6.32
2022-10-31T19:43:48.320Z,5.15
2022-10-31T19:45:57.626Z,5.40
2022-10-31T19:47:59.740Z,5.80
2022-10-31T19:50:04.722Z,5.43
2022-10-31T19:52:06.486Z,5.93
2022-10-31T19:54:08.150Z,5.43
2022-10-31T19:56:24.524Z,5.13
2022-10-31T19:58:26.626Z,5.05
2022-10-31T20:00:28.238Z,4.97
2022-10-31T20:02:29.869Z,5.13
2022-10-31T20:04:31.498Z,5.40
2022-10-31T20:06:36.706Z,5.40
2022-10-31T20:08:39.489Z,5.70
2022-10-31T20:10:42.193Z,5.00
2022-10-31T20:12:43.861Z,4.90
2022-10-31T20:14:45.641Z,5.32
2022-10-31T20:16:47.282Z,5.53
2022-10-31T20:18:49.036Z,5.47
2022-10-31T20:20:50.615Z,5.22
2022-10-31T20:22:52.241Z,5.72
2022-10-31T20:24:53.897Z,5.03
2022-10-31T20:26:55.563Z,4.97
2022-10-31T20:28:58.210Z,4.90
2022-10-31T20:31:01.045Z,4.65
2022-10-31T20:33:02.981Z,4.82
2022-10-31T20:35:05.313Z,5.13
2022-10-31T20:37:07.013Z,4.95
2022-10-31T20:39:09.634Z,5.05
2022-10-31T20:41:12.092Z,4.80
2022-10-31T20:43:14.477Z,5.18
2022-10-31T20:45:16.127Z,4.53
2022-10-31T20:47:20.556Z,4.82
2022-10-31T20:49:25.224Z,4.45
2022-10-31T20:51:28.520Z,4.38
2022-10-31T20:53:30.907Z,4.90
2022-10-31T20:55:32.536Z,4.40
2022-10-31T20:57:34.519Z,4.40
2022-10-31T20:59:36.151Z,5.82
2022-10-31T21:01:38.488Z,4.82
2022-10-31T21:03:40.463Z,4.78
2022-10-31T21:05:42.113Z,4.47
2022-10-31T21:07:43.855Z,4.05
2022-10-31T21:09:45.479Z,4.45
2022-10-31T21:11:47.104Z,4.32
2022-10-31T21:13:49.785Z,4.50
2022-10-31T21:16:02.315Z,4.68
2022-10-31T21:18:04.161Z,4.20
2022-10-31T21:20:07.501Z,4.07
2022-10-31T21:22:09.169Z,4.72
2022-10-31T21:24:14.015Z,4.47
2022-10-31T21:26:20.995Z,4.15
2022-10-31T21:28:22.626Z,4.07
2022-10-31T21:30:24.353Z,4.57
2022-10-31T21:32:25.981Z,4.70
2022-10-31T21:34:27.586Z,4.55
2022-10-31T21:36:29.191Z,4.15
2022-10-31T21:38:31.028Z,3.85
2022-10-31T21:40:32.800Z,4.05
2022-10-31T21:42:34.511Z,4.85
2022-10-31T21:44:36.643Z,3.88
2022-10-31T21:46:39.855Z,4.22
2022-10-31T21:48:43.336Z,4.15
2022-10-31T21:50:44.950Z,4.05
2022-10-31T21:52:46.556Z,4.10
2022-10-31T21:54:48.137Z,4.13
2022-10-31T21:56:50.981Z,4.10
2022-10-31T21:58:53.683Z,4.13
2022-10-31T22:00:55.351Z,4.00
2022-10-31T22:02:57.006Z,4.43
2022-10-31T22:04:58.611Z,4.72
2022-10-31T22:07:00.233Z,3.78
2022-10-31T22:09:04.368Z,3.75
2022-10-31T22:11:08.368Z,4.00
2022-10-31T22:13:09.971Z,3.95
2022-10-31T22:15:11.598Z,3.80
2022-10-31T22:17:13.208Z,4.00
2022-10-31T22:19:16.113Z,4.13
2022-10-31T22:21:22.725Z,3.55
2022-10-31T22:23:24.307Z,3.90
2022-10-31T22:25:25.903Z,3.97
2022-10-31T22:27:27.494Z,3.60
2022-10-31T22:29:29.094Z,4.13
2022-10-31T22:31:32.082Z,3.97
2022-10-31T22:33:34.237Z,3.85
2022-10-31T22:35:35.898Z,3.83
2022-10-31T22:37:37.721Z,3.90
2022-10-31T22:39:39.325Z,3.58
2022-10-31T22:41:41.235Z,3.40
2022-10-31T22:43:43.172Z,3.30
2022-10-31T22:46:00.335Z,3.58
2022-10-31T22:48:02.280Z,3.20
2022-10-31T22:50:04.397Z,3.75
2022-10-31T22:52:06.048Z,3.28
2022-10-31T22:54:18.797Z,3.63
2022-10-31T22:56:23.650Z,3.90
2022-10-31T22:58:25.476Z,3.30
2022-10-31T23:00:27.073Z,3.50
2022-10-31T23:02:28.781Z,3.83
2022-10-31T23:04:30.768Z,4.32
2022-10-31T23:06:33.169Z,3.90
2022-10-31T23:08:36.659Z,3.28
2022-10-31T23:10:42.017Z,3.47
2022-10-31T23:13:02.158Z,3.40
2022-10-31T23:15:04.402Z,3.30
2022-10-31T23:17:06.006Z,3.45
2022-10-31T23:19:09.440Z,3.60
2022-10-31T23:21:31.001Z,3.25
2022-10-31T23:23:38.808Z,3.10
2022-10-31T23:25:59.270Z,3.45
2022-10-31T23:28:00.871Z,3.35
2022-10-31T23:30:02.741Z,3.05
2022-10-31T23:32:06.697Z,3.63
2022-10-31T23:34:09.281Z,3.38
2022-10-31T23:36:10.936Z,3.17
2022-10-31T23:38:12.568Z,3.30
2022-10-31T23:40:14.321Z,3.35
2022-10-31T23:42:16.874Z,3.30
2022-10-31T23:44:18.506Z,2.83
2022-10-31T23:46:20.123Z,3.10
2022-10-31T23:48:21.714Z,3.05
2022-10-31T23:50:23.446Z,4.10
2022-10-31T23:52:25.063Z,3.60
2022-10-31T23:54:28.117Z,3.67
2022-10-31T23:56:29.732Z,3.63
2022-10-31T23:58:31.326Z,3.58
